My Meet Scores
Anna Brancato, The Gymnastics Shop - MyMeetScores.com
Top100 | Top Teams | Upcoming Meets | Completed Meets | Latest | Add Scores | Help| Support | Bookmark and Share

Anna Brancato, The Gymnastics Shop
Personal Bests
LevelVault BarsBeamFloorAA
39.1508.650 8.4259.45034.675
49.0009.375 9.1509.05035.925
59.2008.800 9.1009.35035.975
69.4008.950 9.4509.32536.700
78.2257.600 8.3508.60031.400
Meet Scores
Date Meet Team Session Level Division Vault Bars Beam Floor AA
2018-12-07 St. Nick Invite 2018 The Gymnastics Shop 6B 7 SrB 8.225 12 7.250 9 7.325 14 8.600 11T 31.400 12
2018-11-30 Ultimate Wish Classic The Gymnastics Shop 2 7 SR 0.000 23T 7.600 17 8.350 18T 0.000 23T 15.950 23
2018-03-16 2018 Illinois Level 6, 9, 10 State Championships The Gymnastics Shop 07 6 Sr A 9.025 11 8.900 6T 9.450 4 9.325 15 36.700 7T
2018-02-23 Kinetic Classic The Gymnastics Shop 9 6 Older 8.925 33 8.950 45T 8.875 44T 9.100 54T 35.850 45
2018-02-17 Women's Midwest Open The Gymnastics Shop 11 6 SR A 9.000 8T 8.650 14 9.350 3 8.900 10 35.900 6
2018-01-19 2018 Bravo Classic The Gymnastics Shop 2A 6 Sr 9.400 3 8.700 5 9.250 7T 8.900 13 36.250 5
2017-12-15 2017 Aspire Classic The Gymnastics Shop 1 6 Sr B 9.025 5 8.900 4 9.300 3T 8.850 12T 36.075 3
2017-12-08 St. Nick Invite The Gymnastics Shop 5B 6 JrB 9.100 8T 8.350 8 9.150 6T 9.150 9 35.750 7
2017-12-01 Ultimate Wish Classic The Gymnastics Shop 1 6 SR 7.775 16 8.700 6T 9.125 1 8.900 10T 34.500 9
2017-02-24 Dairy Aire Invitational The Gymnastics Shop All 5 Jr B 8.900 4T 8.800 4 8.675 1 9.350 2 35.725 3T
2017-02-10 IGI Chicago Style Gymnastics Meet The Gymnastics Shop 523W 5 JrB 9.200 6 8.625 19 9.100 7 9.050 6 35.975 8
2017-01-13 Legacy Elite Winter Classic The Gymnastics Shop A1 5 JrA 8.650 5 8.500 8 8.725 7 8.650 9 34.525 7
2016-12-15 2016 Hawaiian Pineapple Sanction The Gymnastics Shop 4A 5 Age 11 8.800 13 8.000 5 8.925 2 9.000 3 34.725 2
2016-12-02 Ultimate Wish Classic The Gymnastics Shop 4 5 Sr A 8.650 12T 8.675 8 8.850 9 8.775 9 34.950 7
2016-03-10 2016 Illinois Level 4 State Meet The Gymnastics Shop All 4 Jr-E 8.600 18 9.375 7 8.950 11 9.000 9 35.925 10
2016-02-05 Atlantas Paws For A Cause Invitational The Gymnastics Shop C5 4 Jr C 9.000 10 8.800 10 8.450 12 9.050 11 35.300 12
2016-01-08 Legacy Elite Winter Classic The Gymnastics Shop 7B 4 Jr A 8.300 3 8.750 3 8.825 6 8.750 4T 34.625 3
2015-12-17 2015 Hawaiian Pineapple Classic The Gymnastics Shop 1A 4 Age 10 8.100 19 9.125 7 9.150 8T 8.750 19 35.125 14
2015-12-04 2015 Ultimate Wish Classic The Gymnastics Shop 10A 4 All 8.450 27 8.925 22 8.725 36 8.725 17 34.825 24
2015-02-13 IGI Chicago Style Gymnastics Meet The Gymnastics Shop 613 4 9 & younge 7.600 30 7.625 30 8.250 25 8.100 25T 31.575 27
2015-01-09 Legacy Elite Winter Classic 2015 The Gymnastics Shop 7A 4 Ch C 8.050 8 6.750 10 8.725 10 7.175 11 30.700 10
2014-03-07 Illinois Level 3 State Meet The Gymnastics Shop 8 3 Youth 9.150 27 8.100 32 6.875 33 9.450 7 33.575 32
2014-02-15 BIG Dream Classic 2014 The Gymnastics Shop 4A 3 Child B 8.600 14 8.650 9T 8.425 11 9.000 5 34.675 11T
2014-02-07 IGI Chicago Style Gymnastics Meet The Gymnastics Shop 232 3 8 & Under 9.100 26 7.850 37 7.800 39T 8.900 23 33.650 35
2013-12-19 2013 Hawaiian Pineapple Classic The Gymnastics Shop A5 3 8 8.600 16T 8.250 15 7.175 19 8.725 12 32.750 15
Get your scores on
a t-shirt, pin, or hoodie

www.lazysuits.com